Time;durP1;ratioP1;P1;durP2;ratioP2;P2;SDS_P1;SDS_P2;PMS_P1;PMS_P2;Temp;Humidity;BMP_temperature;BMP_pressure;BME280_temperature;BME280_humidity;BME280_pressure;Samples;Min_cycle;Max_cycle;Signal;HPM_P1;HPM_P2
2021/07/18 00:02:13;;;;;;;37.00;14.87;;;;;;;25.93;74.14;100114.06;1699744;82;21131;-63
2021/07/18 00:04:39;;;;;;;34.20;14.45;;;;;;;25.89;74.47;100111.31;1778277;78;21062;-63
2021/07/18 00:07:06;;;;;;;36.55;14.35;;;;;;;25.83;74.78;100107.89;1776669;79;21448;-63
2021/07/18 00:09:34;;;;;;;28.90;13.22;;;;;;;25.79;75.08;100106.52;1766370;79;21001;-63
2021/07/18 00:12:03;;;;;;;32.75;13.48;;;;;;;25.77;75.22;100105.83;1767898;79;21059;-63
2021/07/18 00:14:29;;;;;;;34.83;14.35;;;;;;;25.77;75.41;100113.53;1768629;79;21073;-61
2021/07/18 00:16:55;;;;;;;35.15;13.55;;;;;;;25.74;75.47;100117.46;1773968;78;21064;-61
2021/07/18 00:19:22;;;;;;;35.15;13.93;;;;;;;25.73;75.57;100117.12;1766027;79;21004;-61
2021/07/18 00:21:48;;;;;;;43.90;14.30;;;;;;;25.72;75.69;100118.67;1776026;79;21226;-61
2021/07/18 00:24:14;;;;;;;24.55;13.08;;;;;;;25.70;75.99;100129.81;1766617;78;20976;-61
2021/07/18 00:26:41;;;;;;;35.90;14.53;;;;;;;25.66;76.04;100124.32;1769912;79;21180;-61
2021/07/18 00:29:08;;;;;;;41.08;13.88;;;;;;;25.66;76.16;100120.20;1779501;79;21055;-61
2021/07/18 00:31:35;;;;;;;28.52;14.23;;;;;;;25.64;76.24;100126.38;1776960;79;21044;-61
2021/07/18 00:34:01;;;;;;;30.23;14.28;;;;;;;25.63;76.29;100119.67;1780002;79;21269;-61
2021/07/18 00:36:28;;;;;;;26.10;13.83;;;;;;;25.60;76.12;100111.28;1779562;78;21518;-61
2021/07/18 00:38:54;;;;;;;25.17;14.38;;;;;;;25.56;75.82;100122.25;1778097;79;21916;-62
2021/07/18 00:41:21;;;;;;;33.30;14.83;;;;;;;25.51;75.82;100112.27;1769930;79;21068;-62
2021/07/18 00:43:48;;;;;;;29.60;13.90;;;;;;;25.50;75.89;100113.29;1768463;79;21565;-61
2021/07/18 00:46:14;;;;;;;36.55;14.38;;;;;;;25.48;75.99;100115.34;1773878;79;21101;-62
2021/07/18 00:48:41;;;;;;;34.60;14.73;;;;;;;25.45;76.17;100117.37;1777248;79;21008;-62
2021/07/18 00:51:08;;;;;;;33.33;14.28;;;;;;;25.41;76.41;100121.97;1777466;79;21711;-62
2021/07/18 00:53:35;;;;;;;38.70;14.18;;;;;;;25.36;76.80;100125.23;1783296;79;21291;-62
2021/07/18 00:56:03;;;;;;;38.70;13.35;;;;;;;25.31;77.08;100128.97;1780621;79;21175;-62
2021/07/18 00:58:30;;;;;;;39.92;14.00;;;;;;;25.28;77.42;100135.66;1763137;79;21785;-62
2021/07/18 01:00:58;;;;;;;40.70;12.80;;;;;;;25.27;77.44;100128.96;1771428;79;21425;-62
2021/07/18 01:03:27;;;;;;;39.00;13.05;;;;;;;25.26;77.46;100127.24;1777191;79;21812;-62
2021/07/18 01:05:55;;;;;;;28.27;13.95;;;;;;;25.26;77.53;100119.02;1757650;79;21166;-63
2021/07/18 01:08:22;;;;;;;28.05;12.45;;;;;;;25.24;77.56;100121.94;1776253;79;20955;-62
2021/07/18 01:10:50;;;;;;;32.58;12.95;;;;;;;25.21;77.69;100113.17;1778420;79;20937;-63
2021/07/18 01:13:16;;;;;;;25.10;13.03;;;;;;;25.21;77.75;100118.16;1777599;79;21371;-63
2021/07/18 01:15:43;;;;;;;28.67;12.28;;;;;;;25.22;77.74;100114.39;1776896;79;20910;-63
2021/07/18 01:18:10;;;;;;;24.30;12.85;;;;;;;25.22;77.72;100106.66;1784069;79;20972;-63
2021/07/18 01:20:37;;;;;;;36.85;12.40;;;;;;;25.23;77.71;100113.86;1780760;79;21359;-63
2021/07/18 01:23:04;;;;;;;33.25;12.60;;;;;;;25.20;77.80;100127.91;1779545;79;20893;-64
2021/07/18 01:25:31;;;;;;;29.42;13.43;;;;;;;25.18;78.14;100127.56;1772519;79;21330;-63
2021/07/18 01:27:58;;;;;;;38.70;12.40;;;;;;;25.18;78.33;100132.17;1762610;79;21607;-63
2021/07/18 01:30:24;;;;;;;39.30;12.80;;;;;;;25.16;78.63;100137.84;1739617;81;21485;-63
2021/07/18 01:32:51;;;;;;;42.48;12.40;;;;;;;25.13;78.55;100128.58;1761203;79;21094;-63
2021/07/18 01:35:17;;;;;;;34.33;12.63;;;;;;;25.14;78.64;100125.31;1778118;79;21123;-63
2021/07/18 01:37:44;;;;;;;38.35;12.63;;;;;;;25.14;78.79;100133.04;1778914;79;20874;-63
2021/07/18 01:40:11;;;;;;;28.77;12.75;;;;;;;25.13;78.91;100132.69;1778835;79;21366;-63
2021/07/18 01:42:40;;;;;;;35.33;12.15;;;;;;;25.12;78.87;100132.84;1777607;79;21097;-63
2021/07/18 01:45:08;;;;;;;27.35;11.48;;;;;;;25.12;78.93;100139.20;1777590;79;21406;-64
2021/07/18 01:47:34;;;;;;;31.05;11.70;;;;;;;25.09;78.87;100138.16;1740135;81;21482;-63
2021/07/18 01:50:01;;;;;;;29.42;12.05;;;;;;;25.05;79.08;100137.27;1778770;79;20964;-63
2021/07/18 01:52:27;;;;;;;26.55;12.03;;;;;;;25.00;79.22;100136.38;1783261;79;21460;-60
2021/07/18 01:54:55;;;;;;;21.00;11.73;;;;;;;24.99;79.42;100142.39;1769118;79;20921;-61
2021/07/18 01:57:21;;;;;;;20.17;12.07;;;;;;;24.98;79.55;100141.17;1770825;79;21389;-62
2021/07/18 01:59:48;;;;;;;31.33;12.68;;;;;;;24.95;79.66;100138.77;1775610;78;20917;-63
2021/07/18 02:02:14;;;;;;;26.82;12.50;;;;;;;24.94;79.75;100137.05;1774175;79;20889;-63
2021/07/18 02:04:41;;;;;;;32.88;12.50;;;;;;;24.91;79.87;100138.75;1778703;78;21102;-63
2021/07/18 02:07:08;;;;;;;29.37;12.23;;;;;;;24.87;80.04;100143.19;1775052;79;21567;-62
2021/07/18 02:09:36;;;;;;;26.97;12.10;;;;;;;24.86;80.20;100138.70;1773244;79;21052;-63
2021/07/18 02:12:06;;;;;;;30.37;12.43;;;;;;;24.85;80.13;100132.87;1776885;79;21032;-62
2021/07/18 02:14:34;;;;;;;32.15;11.65;;;;;;;24.84;80.09;100124.30;1777551;79;20999;-64
2021/07/18 02:17:00;;;;;;;33.35;12.18;;;;;;;24.86;80.25;100136.48;1778423;79;21094;-64
2021/07/18 02:19:30;;;;;;;29.77;12.00;;;;;;;24.83;80.50;100135.44;1777816;79;20882;-62
2021/07/18 02:21:57;;;;;;;25.55;11.48;;;;;;;24.82;80.34;100135.94;1780775;78;20953;-63
2021/07/18 02:24:23;;;;;;;30.25;12.40;;;;;;;24.82;80.52;100140.05;1772064;78;21027;-63
2021/07/18 02:26:52;;;;;;;35.95;12.70;;;;;;;24.83;80.56;100140.40;1776105;79;21556;-64
2021/07/18 02:29:18;;;;;;;26.70;11.65;;;;;;;24.83;80.59;100139.03;1778587;78;21748;-63
2021/07/18 02:31:46;;;;;;;34.78;11.15;;;;;;;24.80;80.79;100137.98;1780044;78;20890;-63
2021/07/18 02:34:12;;;;;;;32.35;11.43;;;;;;;24.80;80.94;100140.72;1784121;78;20937;-63
2021/07/18 02:36:39;;;;;;;35.43;11.63;;;;;;;24.81;80.99;100145.19;1777179;78;21331;-63
2021/07/18 02:39:05;;;;;;;23.95;11.75;;;;;;;24.84;80.99;100141.27;1784551;78;21429;-61
2021/07/18 02:41:34;;;;;;;23.20;11.85;;;;;;;24.86;80.82;100140.59;1776426;78;21157;-62
2021/07/18 02:44:03;;;;;;;31.80;12.07;;;;;;;24.86;80.98;100156.52;1776264;78;20881;-61
2021/07/18 02:46:30;;;;;;;28.95;12.05;;;;;;;24.85;80.93;100153.95;1783273;78;21531;-60
2021/07/18 02:48:57;;;;;;;25.25;11.80;;;;;;;24.84;80.84;100152.23;1784547;78;21470;-60
2021/07/18 02:51:24;;;;;;;27.95;11.78;;;;;;;24.88;80.82;100156.36;1778128;78;20949;-59
2021/07/18 02:53:50;;;;;;;25.62;11.53;;;;;;;24.88;80.52;100155.87;1769573;78;21091;-59
2021/07/18 02:56:18;;;;;;;25.45;10.90;;;;;;;24.91;80.21;100152.45;1774896;78;21023;-60
2021/07/18 02:58:45;;;;;;;39.18;12.15;;;;;;;24.92;79.97;100152.27;1780454;78;21460;-60
2021/07/18 03:01:11;;;;;;;20.15;11.03;;;;;;;24.94;79.82;100153.50;1777670;78;21850;-60
2021/07/18 03:03:38;;;;;;;26.68;11.08;;;;;;;24.96;79.81;100147.34;1780310;78;21514;-60
2021/07/18 03:06:05;;;;;;;30.30;11.53;;;;;;;25.03;79.60;100155.25;1775575;78;21091;-60
2021/07/18 03:08:31;;;;;;;30.75;11.93;;;;;;;25.09;79.16;100155.98;1782563;78;20925;-60
2021/07/18 03:10:57;;;;;;;30.77;10.93;;;;;;;25.13;78.69;100160.61;1781223;78;20845;-62
2021/07/18 03:13:24;;;;;;;28.42;11.38;;;;;;;25.15;78.33;100156.70;1784629;78;21755;-62
2021/07/18 03:15:52;;;;;;;45.30;11.90;;;;;;;25.16;78.27;100159.78;1775608;78;21355;-60
2021/07/18 03:18:18;;;;;;;30.62;11.38;;;;;;;25.20;78.14;100156.70;1780631;78;21838;-61
2021/07/18 03:20:46;;;;;;;28.62;10.80;;;;;;;25.26;77.82;100161.53;1775748;78;21324;-60
2021/07/18 03:23:12;;;;;;;24.00;10.90;;;;;;;25.34;77.73;100162.95;1778021;78;20906;-61
2021/07/18 03:25:40;;;;;;;37.15;11.83;;;;;;;25.45;77.31;100163.17;1774516;78;20932;-61
2021/07/18 03:28:07;;;;;;;34.98;11.18;;;;;;;25.52;76.78;100161.50;1780188;78;20950;-60
2021/07/18 03:30:34;;;;;;;37.58;11.43;;;;;;;25.57;76.47;100165.13;1776526;78;21085;-60
2021/07/18 03:33:00;;;;;;;32.45;11.60;;;;;;;25.64;76.10;100166.17;1763170;78;20968;-60
2021/07/18 03:35:27;;;;;;;42.60;11.00;;;;;;;25.72;75.67;100159.32;1782286;78;20901;-60
2021/07/18 03:37:53;;;;;;;31.65;11.65;;;;;;;25.81;75.37;100164.85;1784483;78;21478;-60
2021/07/18 03:40:20;;;;;;;38.63;11.78;;;;;;;25.89;75.27;100167.60;1774144;78;20933;-61
2021/07/18 03:42:46;;;;;;;39.88;12.15;;;;;;;25.95;75.05;100167.45;1777277;78;21861;-60
2021/07/18 03:45:13;;;;;;;52.73;12.03;;;;;;;26.00;75.03;100157.69;1769980;79;21431;-60
2021/07/18 03:47:40;;;;;;;42.33;11.30;;;;;;;26.11;74.91;100156.99;1776564;78;21405;-60
2021/07/18 03:50:09;;;;;;;35.08;11.63;;;;;;;26.23;74.65;100163.05;1777029;78;21459;-60
2021/07/18 03:52:39;;;;;;;33.28;12.23;;;;;;;26.36;74.08;100158.41;1783057;78;20861;-62
2021/07/18 03:55:07;;;;;;;41.00;11.35;;;;;;;26.47;73.85;100163.57;1778041;78;21116;-61
2021/07/18 03:57:35;;;;;;;24.20;12.25;;;;;;;26.57;73.06;100165.61;1779829;78;20921;-60
2021/07/18 04:00:04;;;;;;;50.48;13.62;;;;;;;26.67;72.48;100162.68;1743266;80;20956;-61
2021/07/18 04:02:31;;;;;;;50.12;13.65;;;;;;;26.79;72.15;100157.67;1723504;82;21418;-60
2021/07/18 04:04:58;;;;;;;36.63;13.85;;;;;;;26.93;71.86;100161.63;1717890;81;20939;-60
2021/07/18 04:07:24;;;;;;;47.27;16.52;;;;;;;27.10;71.40;100170.72;1738789;81;21073;-62
2021/07/18 04:09:52;;;;;;;63.05;18.42;;;;;;;27.22;70.33;100171.69;1733071;81;20906;-61
2021/07/18 04:12:18;;;;;;;54.33;19.42;;;;;;;27.26;69.57;100168.92;1743271;80;20951;-61
2021/07/18 04:14:45;;;;;;;67.90;18.25;;;;;;;27.32;69.33;100170.98;1720690;82;20880;-62
2021/07/18 04:17:11;;;;;;;71.62;18.60;;;;;;;27.41;68.97;100170.41;1723843;81;20902;-62
2021/07/18 04:19:39;;;;;;;54.23;17.07;;;;;;;27.49;68.72;100173.64;1723386;82;21846;-61
2021/07/18 04:22:06;;;;;;;58.48;16.87;;;;;;;27.57;68.19;100176.41;1733229;81;20921;-61
2021/07/18 04:24:32;;;;;;;54.95;20.88;;;;;;;27.64;67.59;100184.81;1737559;80;20949;-62
2021/07/18 04:26:59;;;;;;;45.30;18.98;;;;;;;27.68;67.65;100180.12;1739288;80;20951;-62
2021/07/18 04:29:26;;;;;;;69.65;20.70;;;;;;;27.73;67.76;100180.97;1733726;80;21299;-62
2021/07/18 04:31:53;;;;;;;82.20;20.05;;;;;;;27.80;67.79;100181.95;1701016;82;21088;-62
2021/07/18 04:34:20;;;;;;;66.28;19.05;;;;;;;27.91;67.74;100187.56;1691435;82;20957;-61
2021/07/18 04:36:48;;;;;;;46.23;17.10;;;;;;;28.07;67.42;100181.62;1730093;80;20972;-61
2021/07/18 04:39:14;;;;;;;32.80;15.60;;;;;;;28.25;66.91;100192.36;1719303;80;20956;-62
2021/07/18 04:41:42;;;;;;;45.70;15.05;;;;;;;28.40;66.11;100184.14;1724154;81;21611;-62
2021/07/18 04:44:10;;;;;;;36.25;13.98;;;;;;;28.49;65.85;100185.80;1712214;81;21033;-61
2021/07/18 04:46:38;;;;;;;27.77;13.35;;;;;;;28.56;65.42;100177.66;1687278;82;21663;-60
2021/07/18 04:49:04;;;;;;;38.48;12.95;;;;;;;28.63;65.06;100186.01;1719394;81;21026;-60
2021/07/18 04:51:31;;;;;;;24.35;12.70;;;;;;;28.70;64.72;100185.08;1717420;82;21435;-61
2021/07/18 04:53:57;;;;;;;25.05;12.03;;;;;;;28.78;64.38;100178.63;1717655;81;21544;-60
2021/07/18 04:56:23;;;;;;;22.50;12.43;;;;;;;28.86;64.23;100174.46;1767295;79;22857;-60
2021/07/18 04:58:51;;;;;;;23.02;12.30;;;;;;;28.95;64.09;100172.98;1762963;79;20989;-60
2021/07/18 05:01:17;;;;;;;20.75;12.33;;;;;;;29.05;63.76;100180.45;1761430;79;21049;-60
2021/07/18 05:03:44;;;;;;;34.25;12.65;;;;;;;29.14;63.48;100188.98;1762928;79;21677;-61
2021/07/18 05:06:11;;;;;;;31.70;12.63;;;;;;;29.22;63.29;100178.89;1766683;79;20910;-61
2021/07/18 05:08:37;;;;;;;25.70;12.63;;;;;;;29.31;63.02;100183.28;1759623;79;21039;-61
2021/07/18 05:11:05;;;;;;;22.82;12.65;;;;;;;29.40;62.59;100182.63;1760902;79;20930;-61
2021/07/18 05:13:33;;;;;;;17.27;11.63;;;;;;;29.54;62.32;100182.34;1766552;79;21267;-61
2021/07/18 05:16:01;;;;;;;26.97;12.07;;;;;;;29.70;62.12;100183.47;1759986;79;21209;-60
2021/07/18 05:18:27;;;;;;;23.65;13.15;;;;;;;29.88;61.42;100184.95;1761918;79;21284;-63
2021/07/18 05:20:54;;;;;;;28.25;13.05;;;;;;;30.03;60.80;100190.46;1764498;79;21082;-63
2021/07/18 05:23:20;;;;;;;18.82;13.35;;;;;;;30.14;59.83;100182.17;1762565;79;21040;-62
2021/07/18 05:25:49;;;;;;;25.20;14.60;;;;;;;30.26;59.77;100186.66;1764612;79;21301;-62
2021/07/18 05:28:18;;;;;;;30.60;12.90;;;;;;;30.37;60.03;100183.88;1764291;79;20996;-61
2021/07/18 05:30:44;;;;;;;30.08;12.85;;;;;;;30.46;60.23;100185.48;1764399;79;21079;-63
2021/07/18 05:33:11;;;;;;;33.10;12.98;;;;;;;30.53;60.41;100187.77;1761531;79;21489;-61
2021/07/18 05:35:38;;;;;;;34.18;12.45;;;;;;;30.53;60.25;100179.47;1764948;79;21160;-61
2021/07/18 05:38:04;;;;;;;48.42;13.68;;;;;;;30.55;59.91;100187.03;1765501;79;21079;-61
2021/07/18 05:40:31;;;;;;;33.70;13.30;;;;;;;30.52;60.11;100190.20;1764995;79;21306;-62
2021/07/18 05:42:57;;;;;;;31.30;13.43;;;;;;;30.51;60.15;100191.26;1760552;79;21020;-61
2021/07/18 05:45:23;;;;;;;25.25;13.00;;;;;;;30.57;60.36;100190.45;1762004;79;21354;-62
2021/07/18 05:47:50;;;;;;;25.72;13.03;;;;;;;30.62;60.57;100195.94;1758442;79;20991;-61
2021/07/18 05:50:17;;;;;;;25.77;13.22;;;;;;;30.61;60.16;100192.81;1767278;79;21054;-61
2021/07/18 05:52:43;;;;;;;22.15;12.47;;;;;;;30.54;59.93;100204.69;1765212;79;21478;-61
2021/07/18 05:55:10;;;;;;;28.90;12.78;;;;;;;30.48;59.78;100202.72;1763633;79;21342;-61
2021/07/18 05:57:36;;;;;;;26.52;12.73;;;;;;;30.43;60.34;100200.55;1766550;79;22084;-61
2021/07/18 06:00:09;;;;;;;31.85;12.78;;;;;;;30.47;60.89;100205.67;1766248;79;20948;-61
2021/07/18 06:02:40;;;;;;;38.85;13.18;;;;;;;30.52;60.60;100198.50;1765634;79;20906;-63
2021/07/18 06:05:09;;;;;;;35.55;13.08;;;;;;;30.62;60.50;100200.95;1768925;79;21668;-63
2021/07/18 06:07:37;;;;;;;37.67;13.18;;;;;;;30.77;59.86;100208.32;1761915;79;20989;-61
2021/07/18 06:10:09;;;;;;;24.07;13.15;;;;;;;30.81;59.57;100207.70;1762946;79;21132;-62
2021/07/18 06:12:36;;;;;;;23.65;13.08;;;;;;;30.83;60.00;100210.27;1764171;79;20921;-62
2021/07/18 06:15:05;;;;;;;41.63;13.18;;;;;;;30.86;59.45;100214.02;1762878;79;20969;-62
2021/07/18 06:17:35;;;;;;;32.48;13.53;;;;;;;30.83;59.41;100211.11;1766991;79;20917;-62
2021/07/18 06:20:07;;;;;;;28.05;13.38;;;;;;;30.75;59.94;100219.58;1765561;79;20962;-61
2021/07/18 06:22:35;;;;;;;20.52;14.10;;;;;;;30.72;60.19;100215.83;1764878;79;21097;-62
2021/07/18 06:25:04;;;;;;;24.18;13.62;;;;;;;30.68;60.35;100213.14;1757144;79;38531;-61
2021/07/18 06:27:31;;;;;;;28.52;13.00;;;;;;;30.63;60.14;100212.34;1766742;79;20917;-61
2021/07/18 06:29:57;;;;;;;46.65;14.10;;;;;;;30.62;60.59;100206.48;1777069;78;20933;-61
2021/07/18 06:32:25;;;;;;;37.60;14.43;;;;;;;30.68;60.50;100213.14;1773970;78;20874;-61
2021/07/18 06:34:52;;;;;;;29.77;14.15;;;;;;;30.71;60.46;100211.36;1773170;78;21107;-61
2021/07/18 06:37:18;;;;;;;32.63;14.15;;;;;;;30.76;60.75;100210.22;1773268;78;21864;-62
2021/07/18 06:39:45;;;;;;;47.40;13.88;;;;;;;30.80;60.44;100207.91;1776940;78;20886;-62
2021/07/18 06:42:11;;;;;;;40.43;14.35;;;;;;;30.86;60.11;100220.42;1778315;78;21359;-61
2021/07/18 06:44:38;;;;;;;53.58;14.85;;;;;;;30.93;59.76;100208.54;1781579;78;20922;-61
2021/07/18 06:47:05;;;;;;;50.65;13.48;;;;;;;30.97;59.49;100212.61;1777831;78;21115;-62
2021/07/18 06:49:31;;;;;;;51.00;14.25;;;;;;;31.03;59.23;100204.88;1778288;78;20858;-63
2021/07/18 06:51:58;;;;;;;54.00;14.05;;;;;;;31.12;59.25;100211.98;1784169;78;21399;-62
2021/07/18 06:54:24;;;;;;;53.87;13.72;;;;;;;31.15;59.09;100211.56;1774056;78;21584;-62
2021/07/18 06:56:51;;;;;;;80.47;14.40;;;;;;;31.21;58.50;100210.45;1774584;78;21422;-62
2021/07/18 06:59:18;;;;;;;37.33;13.93;;;;;;;31.23;58.32;100206.95;1781351;78;21371;-62
2021/07/18 07:01:44;;;;;;;27.22;13.53;;;;;;;31.23;57.88;100206.95;1776944;78;21314;-63
2021/07/18 07:04:11;;;;;;;45.30;13.50;;;;;;;31.21;57.51;100205.78;1780536;78;20933;-61
2021/07/18 07:06:37;;;;;;;44.45;13.83;;;;;;;31.19;56.63;100219.47;1778900;78;20924;-61
2021/07/18 07:09:05;;;;;;;44.00;15.45;;;;;;;31.14;56.45;100211.25;1782878;78;21794;-61
2021/07/18 07:11:31;;;;;;;58.45;13.72;;;;;;;31.14;56.52;100217.30;1783451;78;21889;-61
2021/07/18 07:13:58;;;;;;;36.42;14.83;;;;;;;31.15;56.67;100218.48;1783146;78;20874;-61
2021/07/18 07:16:24;;;;;;;36.10;14.70;;;;;;;31.21;56.20;100220.14;1778129;78;20916;-61
2021/07/18 07:18:51;;;;;;;45.88;14.78;;;;;;;31.22;56.32;100217.19;1785351;78;20937;-61
2021/07/18 07:21:17;;;;;;;31.17;14.00;;;;;;;31.23;56.13;100218.03;1779901;78;20957;-61
2021/07/18 07:23:44;;;;;;;41.63;14.00;;;;;;;31.21;56.68;100222.91;1773436;78;21468;-61
2021/07/18 07:26:10;;;;;;;51.20;14.47;;;;;;;31.23;56.24;100225.81;1774521;78;20861;-61
2021/07/18 07:28:38;;;;;;;42.85;14.63;;;;;;;31.26;56.17;100236.99;1776246;78;20929;-61
2021/07/18 07:31:04;;;;;;;55.30;14.55;;;;;;;31.23;57.04;100240.17;1779891;78;20937;-61
2021/07/18 07:33:33;;;;;;;35.63;14.25;;;;;;;31.14;57.35;100232.01;1776265;78;20984;-61
2021/07/18 07:36:04;;;;;;;33.80;13.60;;;;;;;31.10;57.61;100243.16;1776002;78;20901;-61
2021/07/18 07:38:32;;;;;;;27.15;13.43;;;;;;;31.07;57.67;100237.16;1783593;78;20893;-61
2021/07/18 07:40:58;;;;;;;24.37;13.58;;;;;;;31.11;58.24;100240.72;1775361;78;21345;-61
2021/07/18 07:43:25;;;;;;;34.27;13.32;;;;;;;31.22;57.91;100248.16;1775701;79;21442;-62
2021/07/18 07:45:51;;;;;;;30.60;13.20;;;;;;;31.24;57.33;100247.42;1772444;79;21335;-61
2021/07/18 07:48:18;;;;;;;35.23;13.72;;;;;;;31.19;57.52;100248.53;1773469;78;21540;-61
2021/07/18 07:50:45;;;;;;;34.60;13.08;;;;;;;31.18;57.99;100250.98;1777079;78;20905;-61
2021/07/18 07:53:11;;;;;;;25.72;13.28;;;;;;;31.21;57.29;100247.31;1781745;78;21375;-61
2021/07/18 07:55:39;;;;;;;21.87;13.48;;;;;;;31.25;57.38;100254.16;1781547;78;20909;-61
2021/07/18 07:58:07;;;;;;;21.65;13.32;;;;;;;31.30;58.00;100252.17;1782436;78;21470;-61
2021/07/18 08:00:34;;;;;;;25.32;12.37;;;;;;;31.32;58.25;100246.41;1781417;78;21039;-61
2021/07/18 08:03:00;;;;;;;31.80;13.83;;;;;;;31.36;57.61;100256.89;1774955;78;20929;-61
2021/07/18 08:05:27;;;;;;;22.85;12.53;;;;;;;31.38;57.54;100249.23;1775237;78;20937;-61
2021/07/18 08:07:53;;;;;;;21.35;11.73;;;;;;;31.38;57.76;100240.92;1780248;78;21406;-61
2021/07/18 08:10:20;;;;;;;24.47;12.50;;;;;;;31.40;57.10;100244.34;1781639;78;20987;-61
2021/07/18 08:12:47;;;;;;;27.00;12.73;;;;;;;31.42;57.52;100247.75;1782841;78;21020;-61
2021/07/18 08:15:15;;;;;;;26.00;12.82;;;;;;;31.42;57.36;100249.14;1782005;78;20928;-61
2021/07/18 08:17:42;;;;;;;26.77;13.28;;;;;;;31.37;57.13;100257.20;1779032;79;20975;-61
2021/07/18 08:20:14;;;;;;;34.95;11.93;;;;;;;31.38;57.32;100245.08;1774494;78;20905;-61
2021/07/18 08:22:41;;;;;;;46.90;12.60;;;;;;;31.48;55.95;100256.30;1777276;78;20895;-61
2021/07/18 08:25:08;;;;;;;39.48;12.00;;;;;;;31.56;55.26;100252.83;1775602;78;21327;-61
2021/07/18 08:27:35;;;;;;;32.88;10.60;;;;;;;31.62;54.90;100258.09;1781021;78;20941;-61
2021/07/18 08:30:04;;;;;;;33.48;11.88;;;;;;;31.70;54.42;100263.99;1743702;79;21457;-60
2021/07/18 08:32:31;;;;;;;37.95;11.38;;;;;;;31.80;54.24;100263.10;1713542;81;21392;-61
2021/07/18 08:34:57;;;;;;;34.23;10.23;;;;;;;31.90;53.15;100262.72;1718680;81;20921;-61
2021/07/18 08:37:24;;;;;;;49.75;11.20;;;;;;;31.94;52.28;100261.23;1716180;81;21082;-61
2021/07/18 08:39:51;;;;;;;54.00;12.78;;;;;;;32.03;52.48;100261.08;1736799;80;21555;-61
2021/07/18 08:42:17;;;;;;;49.67;12.70;;;;;;;32.05;53.29;100260.33;1723665;81;20930;-61
2021/07/18 08:44:44;;;;;;;32.60;10.93;;;;;;;32.00;53.46;100257.66;1725458;81;20950;-63
2021/07/18 08:47:11;;;;;;;35.70;12.37;;;;;;;32.05;53.25;100253.40;1719997;81;20881;-63
2021/07/18 08:49:38;;;;;;;31.30;12.47;;;;;;;32.06;53.36;100250.44;1720370;81;21098;-61
2021/07/18 08:52:05;;;;;;;27.87;12.15;;;;;;;32.04;54.45;100247.53;1726612;81;20894;-61
2021/07/18 08:54:32;;;;;;;35.03;12.95;;;;;;;31.94;55.07;100247.92;1724901;81;21401;-61
2021/07/18 08:57:02;;;;;;;34.10;12.20;;;;;;;31.84;55.46;100242.77;1729311;81;21372;-62
2021/07/18 08:59:30;;;;;;;36.03;12.43;;;;;;;31.84;55.03;100244.16;1729456;81;20922;-61
2021/07/18 09:01:56;;;;;;;46.25;12.78;;;;;;;31.89;55.26;100244.93;1729254;81;21108;-62
2021/07/18 09:04:23;;;;;;;39.95;13.22;;;;;;;31.94;54.98;100241.84;1727266;81;20909;-63
2021/07/18 09:06:51;;;;;;;34.53;13.05;;;;;;;31.99;55.01;100243.99;1718192;81;20938;-62
2021/07/18 09:09:20;;;;;;;32.63;12.78;;;;;;;32.03;54.89;100240.28;1732170;81;20973;-62
2021/07/18 09:12:02;;;;;;;24.80;12.13;;;;;;;32.09;55.49;100244.98;1739485;81;20900;-62
2021/07/18 09:14:41;;;;;;;32.75;12.98;;;;;;;32.19;54.34;100245.97;1714454;82;21095;-62
2021/07/18 09:17:18;;;;;;;37.58;13.95;;;;;;;32.21;54.34;100247.48;1713606;81;21388;-62
2021/07/18 09:19:45;;;;;;;33.67;12.78;;;;;;;32.17;53.96;100244.81;1741288;81;21387;-63
2021/07/18 09:22:18;;;;;;;39.35;12.40;;;;;;;32.10;54.00;100246.69;1718869;81;20954;-62
2021/07/18 09:24:54;;;;;;;34.50;11.97;;;;;;;32.09;54.03;100244.47;1719865;82;20899;-62
2021/07/18 09:27:25;;;;;;;54.58;13.43;;;;;;;32.12;53.87;100245.95;1729859;81;21094;-62
2021/07/18 09:29:59;;;;;;;24.65;11.90;;;;;;;32.14;53.51;100245.20;1732777;81;20959;-62
2021/07/18 09:32:28;;;;;;;27.25;12.37;;;;;;;32.15;53.27;100249.17;1735023;81;20914;-62
2021/07/18 09:35:00;;;;;;;18.17;12.00;;;;;;;32.17;53.60;100240.66;1740922;80;20916;-62
2021/07/18 09:37:35;;;;;;;23.45;12.43;;;;;;;32.22;53.28;100241.39;1731871;81;20961;-62
2021/07/18 09:40:13;;;;;;;25.72;12.23;;;;;;;32.26;52.74;100239.38;1723681;81;21356;-62
2021/07/18 09:43:01;;;;;;;28.25;12.45;;;;;;;32.32;52.58;100242.38;1725858;81;20949;-62
2021/07/18 09:45:30;;;;;;;27.90;12.55;;;;;;;32.37;53.04;100237.08;1725714;81;20921;-62
2021/07/18 09:48:06;;;;;;;23.60;12.45;;;;;;;32.35;52.13;100236.44;1725544;81;20913;-62
2021/07/18 09:50:40;;;;;;;21.17;12.43;;;;;;;32.35;52.44;100239.20;1728376;81;21491;-62
2021/07/18 09:53:10;;;;;;;19.57;11.55;;;;;;;32.37;51.60;100239.84;1729670;81;21940;-62
2021/07/18 09:55:39;;;;;;;14.63;11.73;;;;;;;32.44;51.12;100237.95;1739370;80;20948;-62
2021/07/18 09:58:05;;;;;;;35.70;12.10;;;;;;;32.48;50.51;100242.02;1776882;79;21228;-61
2021/07/18 10:00:39;;;;;;;21.25;11.85;;;;;;;32.52;50.58;100243.30;1776179;79;20909;-62
2021/07/18 10:03:12;;;;;;;43.92;12.78;;;;;;;32.51;50.56;100240.75;1778655;79;21371;-62
2021/07/18 10:05:38;;;;;;;24.77;10.80;;;;;;;32.42;50.77;100238.70;1778444;79;21402;-62
2021/07/18 10:08:07;;;;;;;27.17;10.95;;;;;;;32.34;50.34;100240.27;1757177;79;20972;-62
2021/07/18 10:10:37;;;;;;;22.07;11.22;;;;;;;32.21;50.57;100236.91;1773417;79;20873;-62
2021/07/18 10:13:05;;;;;;;23.05;10.80;;;;;;;32.11;51.18;100234.54;1776900;79;21395;-62
2021/07/18 10:15:33;;;;;;;21.95;10.58;;;;;;;32.12;51.06;100230.19;1783310;79;21433;-62
2021/07/18 10:17:59;;;;;;;14.85;10.20;;;;;;;32.17;50.25;100236.50;1778618;79;21761;-63
2021/07/18 10:20:27;;;;;;;20.77;9.60;;;;;;;32.17;50.38;100233.72;1773847;79;20968;-63
2021/07/18 10:22:55;;;;;;;13.13;9.68;;;;;;;32.19;50.18;100235.75;1778715;78;20942;-63
2021/07/18 10:25:23;;;;;;;14.10;9.28;;;;;;;32.20;49.94;100231.91;1782998;79;20914;-64
2021/07/18 10:27:49;;;;;;;15.78;8.43;;;;;;;32.21;49.39;100232.75;1750027;80;21210;-63
2021/07/18 10:30:17;;;;;;;11.95;8.98;;;;;;;32.26;49.15;100229.67;1773227;79;21039;-62
2021/07/18 10:32:44;;;;;;;12.15;8.20;;;;;;;32.33;48.56;100228.86;1764599;80;20905;-62
2021/07/18 10:35:12;;;;;;;12.98;7.87;;;;;;;32.38;48.02;100230.46;1778102;78;20940;-62
2021/07/18 10:37:41;;;;;;;16.30;7.70;;;;;;;32.43;47.49;100230.70;1775745;78;21363;-61
2021/07/18 10:40:18;;;;;;;12.73;7.55;;;;;;;32.50;46.96;100218.23;1778813;78;20954;-63
2021/07/18 10:42:44;;;;;;;11.12;7.60;;;;;;;32.56;46.66;100227.92;1774608;78;21775;-63
2021/07/18 10:45:22;;;;;;;11.20;8.18;;;;;;;32.60;46.51;100215.88;1765785;79;21422;-62
2021/07/18 10:48:06;;;;;;;12.28;8.20;;;;;;;32.62;46.82;100215.68;1766998;79;21509;-63
2021/07/18 10:50:46;;;;;;;;;;;;;;;32.66;46.74;100212.80;1780001;78;20948;-63
2021/07/18 10:53:34;;;;;;;9.15;8.20;;;;;;;32.72;46.91;100214.70;1785480;78;20565;-62
2021/07/18 10:56:01;;;;;;;8.73;7.60;;;;;;;32.71;46.67;100208.28;1773926;78;21962;-62
2021/07/18 10:58:42;;;;;;;14.13;8.60;;;;;;;32.68;46.60;100210.66;1759323;78;20912;-62
2021/07/18 11:01:31;;;;;;;10.15;8.00;;;;;;;32.67;46.62;100211.73;1781961;78;20921;-64
2021/07/18 11:03:59;;;;;;;11.63;8.48;;;;;;;32.70;46.35;100214.06;1781560;78;20920;-63
2021/07/18 11:06:30;;;;;;;13.18;8.88;;;;;;;32.72;46.60;100210.55;1783718;78;21342;-63
2021/07/18 11:09:12;;;;;;;11.43;8.18;;;;;;;32.70;46.54;100207.13;1781522;78;20906;-63
2021/07/18 11:11:51;;;;;;;9.23;7.35;;;;;;;32.65;46.50;100207.77;1781415;78;20877;-63
2021/07/18 11:14:28;;;;;;;10.05;8.05;;;;;;;32.60;46.14;100212.23;1775044;78;20918;-63